createdAt,value
2018-02-10T00:01:03.646Z,2.58
2018-02-10T00:03:31.167Z,2.60
2018-02-10T00:05:58.695Z,2.61
2018-02-10T00:08:26.208Z,2.60
2018-02-10T00:10:53.749Z,2.61
2018-02-10T00:13:21.552Z,2.62
2018-02-10T00:15:49.012Z,2.63
2018-02-10T00:18:16.501Z,2.59
2018-02-10T00:20:44.414Z,2.56
2018-02-10T00:23:11.867Z,2.55
2018-02-10T00:25:39.322Z,2.56
2018-02-10T00:28:06.785Z,2.57
2018-02-10T00:30:34.723Z,2.58
2018-02-10T00:33:02.161Z,2.60
2018-02-10T00:35:29.696Z,2.59
2018-02-10T00:37:57.201Z,2.57
2018-02-10T00:40:24.752Z,2.54
2018-02-10T00:42:52.244Z,2.54
2018-02-10T00:45:19.834Z,2.54
2018-02-10T00:47:47.677Z,2.53
2018-02-10T00:50:15.205Z,2.55
2018-02-10T00:52:42.791Z,2.57
2018-02-10T00:55:10.319Z,2.56
2018-02-10T00:57:37.837Z,2.56
2018-02-10T01:00:05.329Z,2.60
2018-02-10T01:02:32.855Z,2.58
2018-02-10T01:05:00.751Z,2.58
2018-02-10T01:07:28.246Z,2.55
2018-02-10T01:09:56.619Z,2.57
2018-02-10T01:12:24.167Z,2.55
2018-02-10T01:14:51.611Z,2.57
2018-02-10T01:17:19.129Z,2.57
2018-02-10T01:19:46.565Z,2.58
2018-02-10T01:22:14.058Z,2.59
2018-02-10T01:24:41.569Z,2.60
2018-02-10T01:27:09.025Z,2.61
2018-02-10T01:29:36.509Z,2.60
2018-02-10T01:32:04.354Z,2.61
2018-02-10T01:34:31.886Z,2.60
2018-02-10T01:36:59.372Z,2.61
2018-02-10T01:39:26.950Z,2.61
2018-02-10T01:41:54.427Z,2.58
2018-02-10T01:44:21.914Z,2.58
2018-02-10T01:46:50.631Z,2.56
2018-02-10T01:49:18.211Z,2.57
2018-02-10T01:51:45.712Z,2.61
2018-02-10T01:54:13.183Z,2.60
2018-02-10T01:56:40.659Z,2.60
2018-02-10T01:59:08.119Z,2.60
2018-02-10T02:01:35.597Z,2.61
2018-02-10T02:04:03.167Z,2.56
2018-02-10T02:06:30.613Z,2.57
2018-02-10T02:08:58.117Z,2.58
2018-02-10T02:11:25.661Z,2.58
2018-02-10T02:13:53.951Z,2.58
2018-02-10T02:16:21.483Z,2.55
2018-02-10T02:18:48.981Z,2.54
2018-02-10T02:21:16.496Z,2.52
2018-02-10T02:23:44.029Z,2.54
2018-02-10T02:26:11.517Z,2.56
2018-02-10T02:28:39.343Z,2.55
2018-02-10T02:31:06.831Z,2.55
2018-02-10T02:33:34.315Z,2.55
2018-02-10T02:36:01.799Z,2.55
2018-02-10T02:38:29.211Z,2.55
2018-02-10T02:40:56.660Z,2.55
2018-02-10T02:43:24.597Z,2.55
2018-02-10T02:45:52.073Z,2.55
2018-02-10T02:48:19.520Z,2.55
2018-02-10T02:50:47.871Z,2.55
2018-02-10T02:53:20.340Z,2.55
2018-02-10T02:55:47.806Z,2.53
2018-02-10T02:58:15.289Z,2.54
2018-02-10T03:00:42.749Z,2.54
2018-02-10T03:03:15.209Z,2.54
2018-02-10T03:05:42.672Z,2.54
2018-02-10T03:08:10.163Z,2.55
2018-02-10T03:10:38.738Z,2.55
2018-02-10T03:13:06.278Z,2.57
2018-02-10T03:15:33.834Z,2.58
2018-02-10T03:18:01.344Z,2.59
2018-02-10T03:20:28.842Z,2.59
2018-02-10T03:22:56.318Z,2.58
2018-02-10T03:25:23.802Z,2.59
2018-02-10T03:27:51.282Z,2.59
2018-02-10T03:30:19.035Z,2.61
2018-02-10T03:32:46.603Z,2.61
2018-02-10T03:35:14.057Z,2.61
2018-02-10T03:37:41.576Z,2.61
2018-02-10T03:40:09.014Z,2.60
2018-02-10T03:42:36.804Z,2.59
2018-02-10T03:45:04.374Z,2.60
2018-02-10T03:47:31.850Z,2.64
2018-02-10T03:49:59.314Z,2.64
2018-02-10T03:52:26.806Z,2.64
2018-02-10T03:54:54.294Z,2.60
2018-02-10T03:57:21.742Z,2.56
2018-02-10T03:59:49.343Z,2.53
2018-02-10T04:02:16.843Z,2.50
2018-02-10T04:04:44.332Z,2.50
2018-02-10T04:07:11.814Z,2.49
2018-02-10T04:09:39.294Z,2.52
2018-02-10T04:12:06.790Z,2.50
2018-02-10T04:14:34.298Z,2.49
2018-02-10T04:17:01.806Z,2.49
2018-02-10T04:19:29.304Z,2.48
2018-02-10T04:21:56.781Z,2.46
2018-02-10T04:24:24.317Z,2.46
2018-02-10T04:26:51.771Z,2.49
2018-02-10T04:29:22.116Z,2.52
2018-02-10T04:31:49.624Z,2.52
2018-02-10T04:34:17.114Z,2.49
2018-02-10T04:36:44.582Z,2.48
2018-02-10T04:39:12.044Z,2.48
2018-02-10T04:41:39.686Z,2.46
2018-02-10T04:44:07.169Z,2.42
2018-02-10T04:46:34.656Z,2.40
2018-02-10T04:49:02.248Z,2.40
2018-02-10T04:51:29.818Z,2.41
2018-02-10T04:53:57.336Z,2.42
2018-02-10T04:56:24.872Z,2.45
2018-02-10T04:58:52.946Z,2.42
2018-02-10T05:01:20.638Z,2.44
2018-02-10T05:03:49.150Z,2.46
2018-02-10T05:06:16.634Z,2.45
2018-02-10T05:08:44.110Z,2.44
2018-02-10T05:11:11.642Z,2.43
2018-02-10T05:13:39.104Z,2.42
2018-02-10T05:16:06.561Z,2.43
2018-02-10T05:18:34.038Z,2.42
2018-02-10T05:21:01.922Z,2.40
2018-02-10T05:23:29.379Z,2.40
2018-02-10T05:25:56.914Z,2.39
2018-02-10T05:28:24.412Z,2.39
2018-02-10T05:30:51.993Z,2.38
2018-02-10T05:33:19.470Z,2.38
2018-02-10T05:35:46.948Z,2.40
2018-02-10T05:38:14.410Z,2.43
2018-02-10T05:40:41.892Z,2.43
2018-02-10T05:43:09.385Z,2.45
2018-02-10T05:45:36.892Z,2.42
2018-02-10T05:48:04.382Z,2.44
2018-02-10T05:50:31.856Z,2.46
2018-02-10T05:52:59.346Z,2.46
2018-02-10T05:55:26.880Z,2.48
2018-02-10T05:57:54.330Z,2.49
2018-02-10T06:00:21.815Z,2.48
2018-02-10T06:02:49.290Z,2.45
2018-02-10T06:05:16.794Z,2.43
2018-02-10T06:07:44.308Z,2.43
2018-02-10T06:10:11.739Z,2.40
2018-02-10T06:12:39.237Z,2.38
2018-02-10T06:15:06.710Z,2.39
2018-02-10T06:17:34.186Z,2.40
2018-02-10T06:20:01.666Z,2.42
2018-02-10T06:22:29.238Z,2.41
2018-02-10T06:24:56.780Z,2.43
2018-02-10T06:27:24.230Z,2.46
2018-02-10T06:29:51.770Z,2.47
2018-02-10T06:32:19.338Z,2.48
2018-02-10T06:34:46.827Z,2.50
2018-02-10T06:37:14.310Z,2.49
2018-02-10T06:39:41.748Z,2.51
2018-02-10T06:42:09.312Z,2.51
2018-02-10T06:44:36.813Z,2.50
2018-02-10T06:47:04.392Z,2.49
2018-02-10T06:49:31.848Z,2.49
2018-02-10T06:51:59.401Z,2.47
2018-02-10T06:54:27.788Z,2.46
2018-02-10T06:56:55.262Z,2.44
2018-02-10T06:59:22.744Z,2.42
2018-02-10T07:01:55.278Z,2.42
2018-02-10T07:04:23.596Z,2.43
2018-02-10T07:06:51.467Z,2.42
2018-02-10T07:09:18.951Z,2.46
2018-02-10T07:11:46.456Z,2.48
2018-02-10T07:14:14.042Z,2.49
2018-02-10T07:16:41.976Z,2.52
2018-02-10T07:19:09.884Z,2.50
2018-02-10T07:21:37.430Z,2.49
2018-02-10T07:24:04.908Z,2.51
2018-02-10T07:26:32.327Z,2.50
2018-02-10T07:28:59.830Z,2.49
2018-02-10T07:31:27.287Z,2.49
2018-02-10T07:33:54.804Z,2.48
2018-02-10T07:36:22.288Z,2.49
2018-02-10T07:38:49.809Z,2.51
2018-02-10T07:41:17.296Z,2.51
2018-02-10T07:43:44.849Z,2.49
2018-02-10T07:46:12.320Z,2.49
2018-02-10T07:48:39.922Z,2.52
2018-02-10T07:51:07.482Z,2.52
2018-02-10T07:53:35.014Z,2.54
2018-02-10T07:56:02.495Z,2.54
2018-02-10T07:58:31.459Z,2.57
2018-02-10T08:00:58.930Z,2.58
2018-02-10T08:03:26.405Z,2.60
2018-02-10T08:05:54.205Z,2.58
2018-02-10T08:08:23.860Z,2.60
2018-02-10T08:10:51.336Z,2.58
2018-02-10T08:13:24.050Z,2.59
2018-02-10T08:15:51.588Z,2.59
2018-02-10T08:18:19.237Z,2.61
2018-02-10T08:20:46.721Z,2.59
2018-02-10T08:23:14.260Z,2.58
2018-02-10T08:25:41.754Z,2.57
2018-02-10T08:28:09.245Z,2.59
2018-02-10T08:30:36.755Z,2.60
2018-02-10T08:33:04.401Z,2.59
2018-02-10T08:35:32.259Z,2.56
2018-02-10T08:37:59.823Z,2.52
2018-02-10T08:40:27.497Z,2.54
2018-02-10T08:42:55.047Z,2.53
2018-02-10T08:45:22.515Z,2.54
2018-02-10T08:47:50.155Z,2.57
2018-02-10T08:50:17.711Z,2.57
2018-02-10T08:52:45.460Z,2.56
2018-02-10T08:55:13.050Z,2.55
2018-02-10T08:57:40.633Z,2.56
2018-02-10T09:00:08.183Z,2.59
2018-02-10T09:02:36.006Z,2.62
2018-02-10T09:05:03.535Z,2.62
2018-02-10T09:07:31.176Z,2.60
2018-02-10T09:09:58.772Z,2.59
2018-02-10T09:12:27.171Z,2.56
2018-02-10T09:14:54.661Z,2.60
2018-02-10T09:17:22.148Z,2.61
2018-02-10T09:19:49.976Z,2.60
2018-02-10T09:22:17.437Z,2.60
2018-02-10T09:24:44.997Z,2.63
2018-02-10T09:27:12.745Z,2.63
2018-02-10T09:29:41.253Z,2.63
2018-02-10T09:32:08.744Z,2.60
2018-02-10T09:34:36.249Z,2.63
2018-02-10T09:37:03.823Z,2.64
2018-02-10T09:39:31.354Z,2.71
2018-02-10T09:41:58.943Z,2.71
2018-02-10T09:44:26.489Z,2.69
2018-02-10T09:46:54.080Z,2.70
2018-02-10T09:49:21.721Z,2.74
2018-02-10T09:51:49.358Z,2.76
2018-02-10T09:54:16.931Z,2.78
2018-02-10T09:56:44.533Z,2.77
2018-02-10T09:59:12.336Z,2.76
2018-02-10T10:01:39.920Z,2.77
2018-02-10T10:04:07.727Z,2.81
2018-02-10T10:06:35.431Z,2.85
2018-02-10T10:09:03.209Z,2.88
2018-02-10T10:11:30.820Z,2.89
2018-02-10T10:13:58.550Z,2.90
2018-02-10T10:16:26.466Z,2.93
2018-02-10T10:18:54.109Z,2.94
2018-02-10T10:21:21.627Z,2.99
2018-02-10T10:23:49.445Z,3.00
2018-02-10T10:26:16.973Z,3.05
2018-02-10T10:28:44.507Z,3.13
2018-02-10T10:31:12.143Z,3.31
2018-02-10T10:33:39.744Z,3.61
2018-02-10T10:36:07.285Z,3.89
2018-02-10T10:38:35.701Z,4.12
2018-02-10T10:41:06.656Z,4.27
2018-02-10T10:43:34.240Z,4.56
2018-02-10T10:46:01.815Z,4.95
2018-02-10T10:48:29.376Z,5.75
2018-02-10T10:50:57.177Z,6.60
2018-02-10T10:53:30.037Z,7.01
2018-02-10T10:55:58.526Z,7.28
2018-02-10T10:58:26.488Z,7.50
2018-02-10T11:00:54.107Z,7.25
2018-02-10T11:03:23.741Z,7.23
2018-02-10T11:05:52.844Z,6.97
2018-02-10T11:08:20.804Z,6.61
2018-02-10T11:10:48.527Z,6.62
2018-02-10T11:13:16.333Z,6.62
2018-02-10T11:15:43.901Z,6.60
2018-02-10T11:18:11.385Z,6.59
2018-02-10T11:20:39.171Z,6.66
2018-02-10T11:23:06.911Z,6.90
2018-02-10T11:25:34.877Z,7.18
2018-02-10T11:28:02.555Z,7.38
2018-02-10T11:30:30.100Z,7.52
2018-02-10T11:33:02.589Z,7.53
2018-02-10T11:35:30.223Z,7.57
2018-02-10T11:37:57.729Z,7.80
2018-02-10T11:40:27.123Z,8.06
2018-02-10T11:45:47.592Z,8.64
2018-02-10T11:48:15.706Z,8.71
2018-02-10T11:50:43.316Z,8.95
2018-02-10T11:53:12.428Z,8.98
2018-02-10T11:55:40.066Z,9.35
2018-02-10T11:58:07.510Z,9.51
2018-02-10T12:00:35.151Z,9.45
2018-02-10T12:03:03.041Z,9.79
2018-02-10T12:05:30.665Z,9.58
2018-02-10T12:07:58.370Z,9.71
2018-02-10T12:10:25.963Z,9.52
2018-02-10T12:12:53.543Z,9.43
2018-02-10T12:15:21.199Z,9.55
2018-02-10T12:17:48.817Z,9.64
2018-02-10T12:20:16.274Z,9.65
2018-02-10T12:22:43.758Z,9.68
2018-02-10T12:25:11.325Z,9.98
2018-02-10T12:27:38.841Z,10.38
2018-02-10T12:30:06.368Z,10.52
2018-02-10T12:32:33.960Z,10.39
2018-02-10T12:35:01.485Z,10.20
2018-02-10T12:37:29.304Z,10.30
2018-02-10T12:39:56.920Z,10.36
2018-02-10T12:42:26.312Z,10.27
2018-02-10T12:44:54.863Z,10.33
2018-02-10T12:47:25.044Z,10.52
2018-02-10T12:49:52.607Z,10.54
2018-02-10T12:52:20.179Z,10.56
2018-02-10T12:54:47.967Z,10.75
2018-02-10T12:57:15.906Z,10.69
2018-02-10T12:59:43.410Z,9.61
2018-02-10T13:02:11.044Z,9.02
2018-02-10T13:04:38.595Z,8.72
2018-02-10T13:07:07.136Z,9.16
2018-02-10T13:09:34.934Z,9.35
2018-02-10T13:12:02.534Z,9.67
2018-02-10T13:14:30.154Z,9.59
2018-02-10T13:16:58.016Z,9.67
2018-02-10T13:19:25.626Z,10.03
2018-02-10T13:21:53.287Z,10.09
2018-02-10T13:24:21.200Z,10.59
2018-02-10T13:26:49.011Z,10.71
2018-02-10T13:29:16.642Z,10.55
2018-02-10T13:31:44.116Z,11.03
2018-02-10T13:34:11.646Z,11.22
2018-02-10T13:36:39.119Z,11.77
2018-02-10T13:39:06.717Z,11.71
2018-02-10T13:41:34.354Z,11.51
2018-02-10T13:44:01.948Z,10.93
2018-02-10T13:46:29.656Z,9.88
2018-02-10T13:48:57.251Z,9.46
2018-02-10T13:51:25.690Z,9.40
2018-02-10T13:53:53.337Z,9.17
2018-02-10T13:56:20.816Z,8.67
2018-02-10T13:58:48.355Z,8.25
2018-02-10T14:01:15.893Z,7.83
2018-02-10T14:03:43.475Z,7.33
2018-02-10T14:06:10.933Z,7.05
2018-02-10T14:08:38.428Z,6.82
2018-02-10T14:11:06.110Z,6.75
2018-02-10T14:13:33.607Z,6.60
2018-02-10T14:16:01.265Z,6.50
2018-02-10T14:18:28.764Z,6.51
2018-02-10T14:20:56.291Z,6.39
2018-02-10T14:23:24.055Z,6.32
2018-02-10T14:25:51.540Z,6.27
2018-02-10T14:28:19.124Z,6.15
2018-02-10T14:30:46.674Z,6.07
2018-02-10T14:33:14.210Z,5.98
2018-02-10T14:35:41.817Z,5.89
2018-02-10T14:38:09.418Z,5.80
2018-02-10T14:40:36.979Z,5.76
2018-02-10T14:43:04.852Z,5.75
2018-02-10T14:45:32.356Z,5.76
2018-02-10T14:47:59.954Z,5.80
2018-02-10T14:50:27.597Z,5.78
2018-02-10T14:52:55.236Z,5.69
2018-02-10T14:55:22.812Z,5.66
2018-02-10T14:57:50.506Z,5.70
2018-02-10T15:00:17.981Z,5.73
2018-02-10T15:02:45.530Z,5.71
2018-02-10T15:05:13.088Z,5.66
2018-02-10T15:07:40.561Z,5.65
2018-02-10T15:10:08.142Z,5.67
2018-02-10T15:12:35.864Z,5.63
2018-02-10T15:15:03.387Z,5.60
2018-02-10T15:17:31.062Z,5.54
2018-02-10T15:19:58.722Z,5.48
2018-02-10T15:22:26.374Z,5.48
2018-02-10T15:24:54.166Z,5.52
2018-02-10T15:27:21.742Z,5.50
2018-02-10T15:30:01.499Z,5.51
2018-02-10T15:32:41.202Z,5.50
2018-02-10T15:35:08.922Z,5.48
2018-02-10T15:37:36.647Z,5.46
2018-02-10T15:40:04.484Z,5.47
2018-02-10T15:42:37.264Z,5.44
2018-02-10T15:45:04.735Z,5.37
2018-02-10T15:47:32.240Z,5.35
2018-02-10T15:49:59.966Z,5.40
2018-02-10T15:52:27.587Z,5.45
2018-02-10T15:54:55.094Z,5.49
2018-02-10T15:57:22.684Z,5.48
2018-02-10T15:59:50.473Z,5.44
2018-02-10T16:02:18.231Z,5.43
2018-02-10T16:04:45.786Z,5.36
2018-02-10T16:07:13.510Z,5.30
2018-02-10T16:09:41.012Z,5.25
2018-02-10T16:12:08.585Z,5.22
2018-02-10T16:14:36.241Z,5.21
2018-02-10T16:17:03.783Z,5.21
2018-02-10T16:19:31.309Z,5.18
2018-02-10T16:21:58.853Z,5.16
2018-02-10T16:24:26.529Z,5.17
2018-02-10T16:26:54.340Z,5.14
2018-02-10T16:29:21.866Z,5.13
2018-02-10T16:31:49.429Z,5.11
2018-02-10T16:34:17.044Z,5.10
2018-02-10T16:36:44.829Z,5.10
2018-02-10T16:39:12.760Z,5.10
2018-02-10T16:41:40.488Z,5.09
2018-02-10T16:44:08.001Z,5.09
2018-02-10T16:46:35.942Z,5.10
2018-02-10T16:49:03.455Z,5.10
2018-02-10T16:51:30.947Z,5.08
2018-02-10T16:53:58.507Z,5.09
2018-02-10T16:56:26.105Z,5.06
2018-02-10T16:58:53.709Z,5.03
2018-02-10T17:01:21.741Z,4.99
2018-02-10T17:03:49.279Z,5.03
2018-02-10T17:06:16.808Z,5.02
2018-02-10T17:08:44.771Z,5.00
2018-02-10T17:11:12.221Z,4.97
2018-02-10T17:16:42.378Z,4.92
2018-02-10T17:19:10.421Z,4.91
2018-02-10T17:21:37.988Z,4.92
2018-02-10T17:24:05.710Z,4.89
2018-02-10T17:26:33.173Z,4.90
2018-02-10T17:29:00.714Z,4.91
2018-02-10T17:31:28.249Z,4.91
2018-02-10T17:33:55.833Z,4.86
2018-02-10T17:36:23.579Z,4.84
2018-02-10T17:38:51.331Z,4.85
2018-02-10T17:41:18.862Z,4.81
2018-02-10T17:43:46.657Z,4.79
2018-02-10T17:46:14.306Z,4.78
2018-02-10T17:48:41.817Z,4.79
2018-02-10T17:51:09.344Z,4.84
2018-02-10T17:53:36.826Z,4.84
2018-02-10T17:56:04.305Z,4.84
2018-02-10T17:58:31.935Z,4.86
2018-02-10T18:00:59.750Z,4.84
2018-02-10T18:03:27.565Z,4.84
2018-02-10T18:05:55.109Z,4.83
2018-02-10T18:08:22.775Z,4.80
2018-02-10T18:10:50.430Z,4.76
2018-02-10T18:13:18.974Z,4.76
2018-02-10T18:15:46.441Z,4.75
2018-02-10T18:18:14.450Z,4.74
2018-02-10T18:20:41.959Z,4.73
2018-02-10T18:23:10.337Z,4.71
2018-02-10T18:25:38.227Z,4.74
2018-02-10T18:28:05.807Z,4.70
2018-02-10T18:30:33.267Z,4.67
2018-02-10T18:33:01.718Z,4.68
2018-02-10T18:35:29.260Z,4.73
2018-02-10T18:37:57.066Z,4.74
2018-02-10T18:40:24.701Z,4.71
2018-02-10T18:42:53.165Z,4.70
2018-02-10T18:45:20.760Z,4.67
2018-02-10T18:47:48.266Z,4.67
2018-02-10T18:50:15.772Z,4.67
2018-02-10T18:52:43.332Z,4.66
2018-02-10T18:55:10.908Z,4.64
2018-02-10T18:57:38.486Z,4.64
2018-02-10T19:00:05.967Z,4.62
2018-02-10T19:02:33.584Z,4.61
2018-02-10T19:05:01.100Z,4.61
2018-02-10T19:07:28.587Z,4.61
2018-02-10T19:09:56.447Z,4.60
2018-02-10T19:12:24.057Z,4.57
2018-02-10T19:14:51.565Z,4.58
2018-02-10T19:17:19.289Z,4.57
2018-02-10T19:19:47.063Z,4.56
2018-02-10T19:22:14.617Z,4.57
2018-02-10T19:24:42.103Z,4.55
2018-02-10T19:27:09.605Z,4.55
2018-02-10T19:29:37.206Z,4.56
2018-02-10T19:32:06.749Z,4.55
2018-02-10T19:34:34.405Z,4.55
2018-02-10T19:37:02.047Z,4.52
2018-02-10T19:39:29.689Z,4.52
2018-02-10T19:41:57.291Z,4.51
2018-02-10T19:44:24.837Z,4.49
2018-02-10T19:46:52.341Z,4.50
2018-02-10T19:49:20.008Z,4.51
2018-02-10T19:51:47.543Z,4.50
2018-02-10T19:54:15.224Z,4.49
2018-02-10T19:56:43.459Z,4.50
2018-02-10T19:59:10.995Z,4.53
2018-02-10T20:01:38.559Z,4.50
2018-02-10T20:04:06.284Z,4.48
2018-02-10T20:06:33.954Z,4.48
2018-02-10T20:09:01.616Z,4.47
2018-02-10T20:11:29.065Z,4.50
2018-02-10T20:13:56.620Z,4.47
2018-02-10T20:16:24.253Z,4.47
2018-02-10T20:18:52.106Z,4.47
2018-02-10T20:21:19.762Z,4.46
2018-02-10T20:23:47.381Z,4.46
2018-02-10T20:26:16.381Z,4.48
2018-02-10T20:28:43.896Z,4.52
2018-02-10T20:31:11.461Z,4.50
2018-02-10T20:33:38.929Z,4.49
2018-02-10T20:36:06.576Z,4.45
2018-02-10T20:38:34.078Z,4.44
2018-02-10T20:41:02.371Z,4.46
2018-02-10T20:43:30.971Z,4.45
2018-02-10T20:45:58.476Z,4.44
2018-02-10T20:48:26.756Z,4.41
2018-02-10T20:50:54.204Z,4.42
2018-02-10T20:53:21.690Z,4.39
2018-02-10T20:55:49.138Z,4.39
2018-02-10T20:58:16.916Z,4.37
2018-02-10T21:00:44.723Z,4.37
2018-02-10T21:03:12.292Z,4.37
2018-02-10T21:05:39.945Z,4.36
2018-02-10T21:08:07.533Z,4.34
2018-02-10T21:10:35.074Z,4.35
2018-02-10T21:13:02.620Z,4.33
2018-02-10T21:15:30.110Z,4.31
2018-02-10T21:17:59.522Z,4.32
2018-02-10T21:20:27.064Z,4.30
2018-02-10T21:22:54.790Z,4.30
2018-02-10T21:25:22.458Z,4.26
2018-02-10T21:27:50.366Z,4.26
2018-02-10T21:30:18.022Z,4.27
2018-02-10T21:32:51.213Z,4.25
2018-02-10T21:35:18.811Z,4.23
2018-02-10T21:37:46.371Z,4.24
2018-02-10T21:40:14.564Z,4.22
2018-02-10T21:42:42.384Z,4.22
2018-02-10T21:45:09.902Z,4.25
2018-02-10T21:47:37.536Z,4.24
2018-02-10T21:50:05.157Z,4.26
2018-02-10T21:52:32.690Z,4.27
2018-02-10T21:55:00.356Z,4.27
2018-02-10T21:57:28.298Z,4.26
2018-02-10T21:59:55.906Z,4.29
2018-02-10T22:02:24.031Z,4.27
2018-02-10T22:04:51.622Z,4.24
2018-02-10T22:07:19.200Z,4.27
2018-02-10T22:09:50.205Z,4.24
2018-02-10T22:12:17.698Z,4.25
2018-02-10T22:14:45.157Z,4.25
2018-02-10T22:17:12.618Z,4.22
2018-02-10T22:19:40.179Z,4.19
2018-02-10T22:22:07.681Z,4.17
2018-02-10T22:24:35.185Z,4.19
2018-02-10T22:27:02.742Z,4.16
2018-02-10T22:29:30.260Z,4.17
2018-02-10T22:31:57.906Z,4.18
2018-02-10T22:34:25.518Z,4.16
2018-02-10T22:36:53.138Z,4.15
2018-02-10T22:39:20.740Z,4.17
2018-02-10T22:41:48.250Z,4.18
2018-02-10T22:44:25.608Z,4.19
2018-02-10T22:46:53.088Z,4.17
2018-02-10T22:49:20.605Z,4.15
2018-02-10T22:51:48.060Z,4.18
2018-02-10T22:54:16.393Z,4.17
2018-02-10T22:56:43.987Z,4.16
2018-02-10T22:59:11.525Z,4.14
2018-02-10T23:01:38.967Z,4.14
2018-02-10T23:04:06.680Z,4.14
2018-02-10T23:06:34.267Z,4.11
2018-02-10T23:09:01.731Z,4.08
2018-02-10T23:11:29.205Z,4.08
2018-02-10T23:13:57.064Z,4.11
2018-02-10T23:16:28.137Z,4.14
2018-02-10T23:18:58.736Z,4.13
2018-02-10T23:21:26.283Z,4.12
2018-02-10T23:23:53.777Z,4.10
2018-02-10T23:26:22.200Z,4.09
2018-02-10T23:28:49.759Z,4.07
2018-02-10T23:31:17.194Z,4.04
2018-02-10T23:33:44.648Z,4.05
2018-02-10T23:36:12.136Z,4.04
2018-02-10T23:38:42.150Z,4.01
2018-02-10T23:41:09.629Z,3.97
2018-02-10T23:43:37.252Z,3.93
2018-02-10T23:46:04.726Z,3.94
2018-02-10T23:48:32.282Z,3.93
2018-02-10T23:50:59.776Z,3.93
2018-02-10T23:53:27.264Z,3.91
2018-02-10T23:55:55.653Z,3.90
2018-02-10T23:58:23.210Z,3.88
